sensor_id;sensor_type;location;lat;lon;timestamp;P1;durP1;ratioP1;P2;durP2;ratioP2
20348;SDS011;10332;50.208;18.988;2024-02-14T00:00:12;55.08;;;28.88;;
20348;SDS011;10332;50.208;18.988;2024-02-14T00:03:03;66.00;;;33.28;;
20348;SDS011;10332;50.208;18.988;2024-02-14T00:05:30;66.40;;;35.97;;
20348;SDS011;10332;50.208;18.988;2024-02-14T00:07:58;67.35;;;34.75;;
20348;SDS011;10332;50.208;18.988;2024-02-14T00:10:25;61.55;;;31.73;;
20348;SDS011;10332;50.208;18.988;2024-02-14T00:12:53;54.30;;;28.38;;
20348;SDS011;10332;50.208;18.988;2024-02-14T00:15:20;52.55;;;27.45;;
20348;SDS011;10332;50.208;18.988;2024-02-14T00:17:47;44.85;;;26.42;;
20348;SDS011;10332;50.208;18.988;2024-02-14T00:20:15;51.72;;;26.92;;
20348;SDS011;10332;50.208;18.988;2024-02-14T00:22:42;60.70;;;30.63;;
20348;SDS011;10332;50.208;18.988;2024-02-14T00:25:09;65.65;;;34.53;;
20348;SDS011;10332;50.208;18.988;2024-02-14T00:27:38;60.95;;;30.88;;
20348;SDS011;10332;50.208;18.988;2024-02-14T00:30:06;55.60;;;29.75;;
20348;SDS011;10332;50.208;18.988;2024-02-14T00:32:33;59.72;;;31.73;;
20348;SDS011;10332;50.208;18.988;2024-02-14T00:35:02;57.90;;;31.42;;
20348;SDS011;10332;50.208;18.988;2024-02-14T00:37:30;65.82;;;33.72;;
20348;SDS011;10332;50.208;18.988;2024-02-14T00:39:57;66.57;;;35.28;;
20348;SDS011;10332;50.208;18.988;2024-02-14T00:42:25;73.15;;;37.17;;
20348;SDS011;10332;50.208;18.988;2024-02-14T00:44:52;58.40;;;29.90;;
20348;SDS011;10332;50.208;18.988;2024-02-14T00:47:20;65.93;;;31.65;;
20348;SDS011;10332;50.208;18.988;2024-02-14T00:49:47;57.58;;;31.15;;
20348;SDS011;10332;50.208;18.988;2024-02-14T00:52:15;60.47;;;30.70;;
20348;SDS011;10332;50.208;18.988;2024-02-14T00:54:43;60.40;;;29.95;;
20348;SDS011;10332;50.208;18.988;2024-02-14T00:57:11;58.58;;;30.13;;
20348;SDS011;10332;50.208;18.988;2024-02-14T00:59:39;51.15;;;26.75;;
20348;SDS011;10332;50.208;18.988;2024-02-14T01:02:06;56.10;;;29.15;;
20348;SDS011;10332;50.208;18.988;2024-02-14T01:04:34;57.90;;;28.88;;
20348;SDS011;10332;50.208;18.988;2024-02-14T01:07:03;53.20;;;26.98;;
20348;SDS011;10332;50.208;18.988;2024-02-14T01:09:30;60.08;;;30.23;;
20348;SDS011;10332;50.208;18.988;2024-02-14T01:11:58;57.78;;;27.95;;
20348;SDS011;10332;50.208;18.988;2024-02-14T01:14:26;66.53;;;32.38;;
20348;SDS011;10332;50.208;18.988;2024-02-14T01:16:54;60.15;;;29.75;;
20348;SDS011;10332;50.208;18.988;2024-02-14T01:19:21;57.85;;;30.55;;
20348;SDS011;10332;50.208;18.988;2024-02-14T01:21:50;60.25;;;30.17;;
20348;SDS011;10332;50.208;18.988;2024-02-14T01:24:18;58.25;;;28.45;;
20348;SDS011;10332;50.208;18.988;2024-02-14T01:26:45;47.60;;;25.33;;
20348;SDS011;10332;50.208;18.988;2024-02-14T01:29:12;48.60;;;26.17;;
20348;SDS011;10332;50.208;18.988;2024-02-14T01:31:40;44.08;;;22.88;;
20348;SDS011;10332;50.208;18.988;2024-02-14T01:34:07;45.83;;;25.95;;
20348;SDS011;10332;50.208;18.988;2024-02-14T01:36:34;43.30;;;22.95;;
20348;SDS011;10332;50.208;18.988;2024-02-14T01:39:02;45.40;;;24.42;;
20348;SDS011;10332;50.208;18.988;2024-02-14T01:41:29;42.75;;;22.42;;
20348;SDS011;10332;50.208;18.988;2024-02-14T01:43:57;46.38;;;23.65;;
20348;SDS011;10332;50.208;18.988;2024-02-14T01:46:26;49.08;;;25.30;;
20348;SDS011;10332;50.208;18.988;2024-02-14T01:48:53;41.80;;;23.67;;
20348;SDS011;10332;50.208;18.988;2024-02-14T01:51:21;39.83;;;22.95;;
20348;SDS011;10332;50.208;18.988;2024-02-14T01:53:53;41.53;;;22.08;;
20348;SDS011;10332;50.208;18.988;2024-02-14T01:56:21;35.10;;;19.05;;
20348;SDS011;10332;50.208;18.988;2024-02-14T01:58:49;35.03;;;20.20;;
20348;SDS011;10332;50.208;18.988;2024-02-14T02:01:17;44.30;;;24.83;;
20348;SDS011;10332;50.208;18.988;2024-02-14T02:03:45;44.00;;;25.58;;
20348;SDS011;10332;50.208;18.988;2024-02-14T02:06:13;47.20;;;24.40;;
20348;SDS011;10332;50.208;18.988;2024-02-14T02:08:44;34.80;;;20.52;;
20348;SDS011;10332;50.208;18.988;2024-02-14T02:11:12;38.28;;;21.38;;
20348;SDS011;10332;50.208;18.988;2024-02-14T02:13:40;44.20;;;24.35;;
20348;SDS011;10332;50.208;18.988;2024-02-14T02:16:07;43.22;;;22.95;;
20348;SDS011;10332;50.208;18.988;2024-02-14T02:18:35;40.95;;;21.02;;
20348;SDS011;10332;50.208;18.988;2024-02-14T02:21:04;43.50;;;23.02;;
20348;SDS011;10332;50.208;18.988;2024-02-14T02:23:34;41.00;;;23.30;;
20348;SDS011;10332;50.208;18.988;2024-02-14T02:26:02;38.00;;;20.67;;
20348;SDS011;10332;50.208;18.988;2024-02-14T02:28:29;32.90;;;18.90;;
20348;SDS011;10332;50.208;18.988;2024-02-14T02:30:57;50.15;;;26.85;;
20348;SDS011;10332;50.208;18.988;2024-02-14T02:33:24;51.28;;;26.42;;
20348;SDS011;10332;50.208;18.988;2024-02-14T02:35:53;49.63;;;25.45;;
20348;SDS011;10332;50.208;18.988;2024-02-14T02:38:21;45.03;;;25.23;;
20348;SDS011;10332;50.208;18.988;2024-02-14T02:40:49;40.97;;;21.85;;
20348;SDS011;10332;50.208;18.988;2024-02-14T02:43:17;37.25;;;20.45;;
20348;SDS011;10332;50.208;18.988;2024-02-14T02:45:44;47.17;;;25.98;;
20348;SDS011;10332;50.208;18.988;2024-02-14T02:48:11;39.15;;;22.58;;
20348;SDS011;10332;50.208;18.988;2024-02-14T02:50:39;45.17;;;24.13;;
20348;SDS011;10332;50.208;18.988;2024-02-14T02:53:06;43.75;;;24.30;;
20348;SDS011;10332;50.208;18.988;2024-02-14T02:55:34;43.22;;;24.25;;
20348;SDS011;10332;50.208;18.988;2024-02-14T02:58:03;50.05;;;27.08;;
20348;SDS011;10332;50.208;18.988;2024-02-14T03:00:32;47.90;;;25.38;;
20348;SDS011;10332;50.208;18.988;2024-02-14T03:03:00;49.40;;;26.33;;
20348;SDS011;10332;50.208;18.988;2024-02-14T03:05:29;44.28;;;26.25;;
20348;SDS011;10332;50.208;18.988;2024-02-14T03:08:00;48.83;;;27.13;;
20348;SDS011;10332;50.208;18.988;2024-02-14T03:10:27;49.85;;;27.90;;
20348;SDS011;10332;50.208;18.988;2024-02-14T03:12:56;43.00;;;25.52;;
20348;SDS011;10332;50.208;18.988;2024-02-14T03:15:23;47.50;;;25.27;;
20348;SDS011;10332;50.208;18.988;2024-02-14T03:17:52;44.22;;;26.58;;
20348;SDS011;10332;50.208;18.988;2024-02-14T03:20:20;47.75;;;28.65;;
20348;SDS011;10332;50.208;18.988;2024-02-14T03:22:47;55.10;;;28.63;;
20348;SDS011;10332;50.208;18.988;2024-02-14T03:25:18;45.70;;;25.92;;
20348;SDS011;10332;50.208;18.988;2024-02-14T03:27:47;45.97;;;25.33;;
20348;SDS011;10332;50.208;18.988;2024-02-14T03:30:18;58.28;;;30.38;;
20348;SDS011;10332;50.208;18.988;2024-02-14T03:32:46;67.45;;;34.72;;
20348;SDS011;10332;50.208;18.988;2024-02-14T03:35:15;61.45;;;32.63;;
20348;SDS011;10332;50.208;18.988;2024-02-14T03:37:43;65.72;;;34.40;;
20348;SDS011;10332;50.208;18.988;2024-02-14T03:40:14;71.18;;;36.25;;
20348;SDS011;10332;50.208;18.988;2024-02-14T03:42:42;61.85;;;32.67;;
20348;SDS011;10332;50.208;18.988;2024-02-14T03:45:09;66.28;;;34.50;;
20348;SDS011;10332;50.208;18.988;2024-02-14T03:47:36;71.85;;;36.38;;
20348;SDS011;10332;50.208;18.988;2024-02-14T03:50:07;78.20;;;38.33;;
20348;SDS011;10332;50.208;18.988;2024-02-14T03:52:35;83.03;;;43.08;;
20348;SDS011;10332;50.208;18.988;2024-02-14T03:55:04;83.45;;;42.58;;
20348;SDS011;10332;50.208;18.988;2024-02-14T03:57:32;84.55;;;42.58;;
20348;SDS011;10332;50.208;18.988;2024-02-14T04:00:02;83.93;;;43.42;;
20348;SDS011;10332;50.208;18.988;2024-02-14T04:02:31;84.05;;;42.65;;
20348;SDS011;10332;50.208;18.988;2024-02-14T04:04:59;80.22;;;40.17;;
20348;SDS011;10332;50.208;18.988;2024-02-14T04:07:26;81.15;;;42.33;;
20348;SDS011;10332;50.208;18.988;2024-02-14T04:09:54;98.32;;;47.47;;
20348;SDS011;10332;50.208;18.988;2024-02-14T04:12:21;91.78;;;45.20;;
20348;SDS011;10332;50.208;18.988;2024-02-14T04:14:48;83.03;;;42.92;;
20348;SDS011;10332;50.208;18.988;2024-02-14T04:17:16;94.57;;;45.88;;
20348;SDS011;10332;50.208;18.988;2024-02-14T04:19:43;82.72;;;41.83;;
20348;SDS011;10332;50.208;18.988;2024-02-14T04:22:11;85.45;;;44.33;;
20348;SDS011;10332;50.208;18.988;2024-02-14T04:24:38;80.63;;;42.13;;
20348;SDS011;10332;50.208;18.988;2024-02-14T04:27:05;79.00;;;40.97;;
20348;SDS011;10332;50.208;18.988;2024-02-14T04:29:33;71.53;;;37.85;;
20348;SDS011;10332;50.208;18.988;2024-02-14T04:32:02;89.43;;;42.17;;
20348;SDS011;10332;50.208;18.988;2024-02-14T04:34:30;85.97;;;43.03;;
20348;SDS011;10332;50.208;18.988;2024-02-14T04:36:58;82.57;;;42.22;;
20348;SDS011;10332;50.208;18.988;2024-02-14T04:39:25;77.60;;;39.53;;
20348;SDS011;10332;50.208;18.988;2024-02-14T04:41:52;81.10;;;39.17;;
20348;SDS011;10332;50.208;18.988;2024-02-14T04:44:28;81.93;;;41.83;;
20348;SDS011;10332;50.208;18.988;2024-02-14T04:46:57;84.03;;;42.72;;
20348;SDS011;10332;50.208;18.988;2024-02-14T04:49:27;83.55;;;41.47;;
20348;SDS011;10332;50.208;18.988;2024-02-14T04:51:58;79.40;;;40.22;;
20348;SDS011;10332;50.208;18.988;2024-02-14T04:54:25;80.25;;;42.33;;
20348;SDS011;10332;50.208;18.988;2024-02-14T04:56:53;83.00;;;39.72;;
20348;SDS011;10332;50.208;18.988;2024-02-14T04:59:26;91.03;;;45.30;;
20348;SDS011;10332;50.208;18.988;2024-02-14T05:01:53;83.85;;;42.97;;
20348;SDS011;10332;50.208;18.988;2024-02-14T05:04:21;81.30;;;41.88;;
20348;SDS011;10332;50.208;18.988;2024-02-14T05:06:49;79.88;;;41.85;;
20348;SDS011;10332;50.208;18.988;2024-02-14T05:09:21;83.20;;;42.88;;
20348;SDS011;10332;50.208;18.988;2024-02-14T05:11:49;79.38;;;42.30;;
20348;SDS011;10332;50.208;18.988;2024-02-14T05:14:16;83.45;;;42.08;;
20348;SDS011;10332;50.208;18.988;2024-02-14T05:16:43;81.20;;;41.08;;
20348;SDS011;10332;50.208;18.988;2024-02-14T05:19:11;88.53;;;43.78;;
20348;SDS011;10332;50.208;18.988;2024-02-14T05:21:39;77.93;;;40.97;;
20348;SDS011;10332;50.208;18.988;2024-02-14T05:24:07;83.18;;;44.13;;
20348;SDS011;10332;50.208;18.988;2024-02-14T05:26:34;81.13;;;41.88;;
20348;SDS011;10332;50.208;18.988;2024-02-14T05:29:02;78.35;;;40.95;;
20348;SDS011;10332;50.208;18.988;2024-02-14T05:31:42;77.43;;;41.03;;
20348;SDS011;10332;50.208;18.988;2024-02-14T05:34:11;76.72;;;40.55;;
20348;SDS011;10332;50.208;18.988;2024-02-14T05:36:39;84.97;;;44.13;;
20348;SDS011;10332;50.208;18.988;2024-02-14T05:39:06;85.95;;;42.83;;
20348;SDS011;10332;50.208;18.988;2024-02-14T05:41:34;75.55;;;40.05;;
20348;SDS011;10332;50.208;18.988;2024-02-14T05:44:02;80.28;;;42.75;;
20348;SDS011;10332;50.208;18.988;2024-02-14T05:46:30;84.35;;;42.45;;
20348;SDS011;10332;50.208;18.988;2024-02-14T05:48:57;83.07;;;41.13;;
20348;SDS011;10332;50.208;18.988;2024-02-14T05:51:25;82.50;;;42.08;;
20348;SDS011;10332;50.208;18.988;2024-02-14T05:53:53;75.72;;;39.97;;
20348;SDS011;10332;50.208;18.988;2024-02-14T05:56:20;79.65;;;41.03;;
20348;SDS011;10332;50.208;18.988;2024-02-14T05:58:47;71.93;;;38.80;;
20348;SDS011;10332;50.208;18.988;2024-02-14T06:01:14;80.85;;;40.75;;
20348;SDS011;10332;50.208;18.988;2024-02-14T06:03:43;71.68;;;39.22;;
20348;SDS011;10332;50.208;18.988;2024-02-14T06:06:10;72.80;;;38.13;;
20348;SDS011;10332;50.208;18.988;2024-02-14T06:08:38;79.22;;;41.00;;
20348;SDS011;10332;50.208;18.988;2024-02-14T06:11:06;69.55;;;37.70;;
20348;SDS011;10332;50.208;18.988;2024-02-14T06:13:33;71.53;;;38.40;;
20348;SDS011;10332;50.208;18.988;2024-02-14T06:16:02;66.90;;;35.38;;
20348;SDS011;10332;50.208;18.988;2024-02-14T06:18:30;69.85;;;36.97;;
20348;SDS011;10332;50.208;18.988;2024-02-14T06:20:57;72.63;;;38.30;;
20348;SDS011;10332;50.208;18.988;2024-02-14T06:23:25;71.82;;;38.13;;
20348;SDS011;10332;50.208;18.988;2024-02-14T06:25:52;73.43;;;39.53;;
20348;SDS011;10332;50.208;18.988;2024-02-14T06:28:20;73.35;;;38.15;;
20348;SDS011;10332;50.208;18.988;2024-02-14T06:30:47;60.15;;;33.10;;
20348;SDS011;10332;50.208;18.988;2024-02-14T06:33:15;66.50;;;36.17;;
20348;SDS011;10332;50.208;18.988;2024-02-14T06:35:43;59.40;;;33.75;;
20348;SDS011;10332;50.208;18.988;2024-02-14T06:38:11;66.60;;;36.03;;
20348;SDS011;10332;50.208;18.988;2024-02-14T06:40:39;66.85;;;35.03;;
20348;SDS011;10332;50.208;18.988;2024-02-14T06:43:07;75.55;;;38.28;;
20348;SDS011;10332;50.208;18.988;2024-02-14T06:45:34;77.25;;;40.45;;
20348;SDS011;10332;50.208;18.988;2024-02-14T06:48:02;72.60;;;39.75;;
20348;SDS011;10332;50.208;18.988;2024-02-14T06:50:29;77.85;;;40.20;;
20348;SDS011;10332;50.208;18.988;2024-02-14T06:52:57;81.65;;;42.83;;
20348;SDS011;10332;50.208;18.988;2024-02-14T06:55:26;82.43;;;42.17;;
20348;SDS011;10332;50.208;18.988;2024-02-14T06:57:54;72.13;;;39.45;;
20348;SDS011;10332;50.208;18.988;2024-02-14T07:00:21;73.07;;;37.08;;
20348;SDS011;10332;50.208;18.988;2024-02-14T07:02:49;69.35;;;37.78;;
20348;SDS011;10332;50.208;18.988;2024-02-14T07:05:16;61.30;;;33.47;;
20348;SDS011;10332;50.208;18.988;2024-02-14T07:07:44;60.35;;;34.45;;
20348;SDS011;10332;50.208;18.988;2024-02-14T07:10:11;66.13;;;33.83;;
20348;SDS011;10332;50.208;18.988;2024-02-14T07:12:39;61.15;;;33.10;;
20348;SDS011;10332;50.208;18.988;2024-02-14T07:15:06;61.65;;;32.10;;
20348;SDS011;10332;50.208;18.988;2024-02-14T07:17:35;61.97;;;32.92;;
20348;SDS011;10332;50.208;18.988;2024-02-14T07:20:03;57.63;;;30.20;;
20348;SDS011;10332;50.208;18.988;2024-02-14T07:22:31;58.45;;;31.42;;
20348;SDS011;10332;50.208;18.988;2024-02-14T07:24:59;60.83;;;32.78;;
20348;SDS011;10332;50.208;18.988;2024-02-14T07:27:26;58.08;;;30.85;;
20348;SDS011;10332;50.208;18.988;2024-02-14T07:29:53;64.22;;;32.65;;
20348;SDS011;10332;50.208;18.988;2024-02-14T07:32:21;60.03;;;31.80;;
20348;SDS011;10332;50.208;18.988;2024-02-14T07:34:48;57.58;;;31.75;;
20348;SDS011;10332;50.208;18.988;2024-02-14T07:37:16;54.13;;;30.10;;
20348;SDS011;10332;50.208;18.988;2024-02-14T07:39:46;59.42;;;32.72;;
20348;SDS011;10332;50.208;18.988;2024-02-14T07:42:14;59.28;;;32.78;;
20348;SDS011;10332;50.208;18.988;2024-02-14T07:44:42;58.92;;;33.42;;
20348;SDS011;10332;50.208;18.988;2024-02-14T07:47:10;65.25;;;33.72;;
20348;SDS011;10332;50.208;18.988;2024-02-14T07:49:38;61.40;;;33.97;;
20348;SDS011;10332;50.208;18.988;2024-02-14T07:52:06;66.03;;;35.90;;
20348;SDS011;10332;50.208;18.988;2024-02-14T07:54:34;63.30;;;35.63;;
20348;SDS011;10332;50.208;18.988;2024-02-14T07:57:02;58.90;;;32.55;;
20348;SDS011;10332;50.208;18.988;2024-02-14T07:59:30;56.30;;;31.83;;
20348;SDS011;10332;50.208;18.988;2024-02-14T08:01:58;57.60;;;31.85;;
20348;SDS011;10332;50.208;18.988;2024-02-14T08:04:25;48.53;;;28.70;;
20348;SDS011;10332;50.208;18.988;2024-02-14T08:06:53;55.97;;;30.15;;
20348;SDS011;10332;50.208;18.988;2024-02-14T08:09:20;50.17;;;28.52;;
20348;SDS011;10332;50.208;18.988;2024-02-14T08:11:47;47.85;;;26.73;;
20348;SDS011;10332;50.208;18.988;2024-02-14T08:14:15;48.55;;;27.55;;
20348;SDS011;10332;50.208;18.988;2024-02-14T08:16:42;42.45;;;24.30;;
20348;SDS011;10332;50.208;18.988;2024-02-14T08:19:09;45.28;;;25.65;;
20348;SDS011;10332;50.208;18.988;2024-02-14T08:21:37;41.88;;;23.88;;
20348;SDS011;10332;50.208;18.988;2024-02-14T08:24:04;40.72;;;23.23;;
20348;SDS011;10332;50.208;18.988;2024-02-14T08:26:32;37.92;;;22.25;;
20348;SDS011;10332;50.208;18.988;2024-02-14T08:28:59;34.83;;;20.67;;
20348;SDS011;10332;50.208;18.988;2024-02-14T08:31:27;30.83;;;19.55;;
20348;SDS011;10332;50.208;18.988;2024-02-14T08:33:54;35.78;;;20.17;;
20348;SDS011;10332;50.208;18.988;2024-02-14T08:36:22;32.67;;;18.23;;
20348;SDS011;10332;50.208;18.988;2024-02-14T08:38:50;25.15;;;16.70;;
20348;SDS011;10332;50.208;18.988;2024-02-14T08:41:17;29.35;;;18.95;;
20348;SDS011;10332;50.208;18.988;2024-02-14T08:43:45;28.13;;;17.88;;
20348;SDS011;10332;50.208;18.988;2024-02-14T08:46:14;29.88;;;18.80;;
20348;SDS011;10332;50.208;18.988;2024-02-14T08:48:43;30.92;;;20.08;;
20348;SDS011;10332;50.208;18.988;2024-02-14T08:51:15;31.70;;;20.15;;
20348;SDS011;10332;50.208;18.988;2024-02-14T08:53:47;28.60;;;19.48;;
20348;SDS011;10332;50.208;18.988;2024-02-14T08:56:14;28.45;;;17.88;;
20348;SDS011;10332;50.208;18.988;2024-02-14T08:58:41;30.75;;;19.77;;
20348;SDS011;10332;50.208;18.988;2024-02-14T09:01:11;26.83;;;18.02;;
20348;SDS011;10332;50.208;18.988;2024-02-14T09:03:42;29.83;;;19.35;;
20348;SDS011;10332;50.208;18.988;2024-02-14T09:06:16;30.17;;;20.55;;
20348;SDS011;10332;50.208;18.988;2024-02-14T09:08:48;29.58;;;20.25;;
20348;SDS011;10332;50.208;18.988;2024-02-14T09:11:17;29.30;;;19.35;;
20348;SDS011;10332;50.208;18.988;2024-02-14T09:13:45;27.85;;;18.52;;
20348;SDS011;10332;50.208;18.988;2024-02-14T09:16:17;23.88;;;17.15;;
20348;SDS011;10332;50.208;18.988;2024-02-14T09:18:45;23.27;;;16.33;;
20348;SDS011;10332;50.208;18.988;2024-02-14T09:21:14;24.80;;;16.92;;
20348;SDS011;10332;50.208;18.988;2024-02-14T09:23:46;26.15;;;17.58;;
20348;SDS011;10332;50.208;18.988;2024-02-14T09:26:14;19.85;;;14.10;;
20348;SDS011;10332;50.208;18.988;2024-02-14T09:28:43;21.15;;;14.85;;
20348;SDS011;10332;50.208;18.988;2024-02-14T09:31:11;21.65;;;16.25;;
20348;SDS011;10332;50.208;18.988;2024-02-14T09:33:39;18.02;;;13.75;;
20348;SDS011;10332;50.208;18.988;2024-02-14T09:36:07;21.55;;;14.23;;
20348;SDS011;10332;50.208;18.988;2024-02-14T09:38:35;19.65;;;14.07;;
20348;SDS011;10332;50.208;18.988;2024-02-14T09:41:10;16.13;;;12.38;;
20348;SDS011;10332;50.208;18.988;2024-02-14T09:43:43;15.55;;;11.68;;
20348;SDS011;10332;50.208;18.988;2024-02-14T09:46:12;12.77;;;9.60;;
20348;SDS011;10332;50.208;18.988;2024-02-14T09:48:44;14.00;;;10.82;;
20348;SDS011;10332;50.208;18.988;2024-02-14T09:51:12;14.52;;;9.70;;
20348;SDS011;10332;50.208;18.988;2024-02-14T09:53:41;13.52;;;8.25;;
20348;SDS011;10332;50.208;18.988;2024-02-14T09:56:09;11.88;;;7.35;;
20348;SDS011;10332;50.208;18.988;2024-02-14T09:58:38;11.70;;;7.85;;
20348;SDS011;10332;50.208;18.988;2024-02-14T10:01:07;10.20;;;7.40;;
20348;SDS011;10332;50.208;18.988;2024-02-14T10:03:36;9.55;;;6.45;;
20348;SDS011;10332;50.208;18.988;2024-02-14T10:06:03;9.68;;;6.60;;
20348;SDS011;10332;50.208;18.988;2024-02-14T10:08:31;8.32;;;6.43;;
20348;SDS011;10332;50.208;18.988;2024-02-14T10:10:59;9.68;;;5.78;;
20348;SDS011;10332;50.208;18.988;2024-02-14T10:13:27;13.68;;;6.85;;
20348;SDS011;10332;50.208;18.988;2024-02-14T10:15:56;8.02;;;6.22;;
20348;SDS011;10332;50.208;18.988;2024-02-14T10:18:23;11.00;;;7.13;;
20348;SDS011;10332;50.208;18.988;2024-02-14T10:20:52;11.90;;;7.30;;
20348;SDS011;10332;50.208;18.988;2024-02-14T10:23:20;9.25;;;6.55;;
20348;SDS011;10332;50.208;18.988;2024-02-14T10:25:57;9.40;;;6.47;;
20348;SDS011;10332;50.208;18.988;2024-02-14T10:28:25;9.65;;;6.40;;
20348;SDS011;10332;50.208;18.988;2024-02-14T10:31:05;8.52;;;5.90;;
20348;SDS011;10332;50.208;18.988;2024-02-14T10:33:32;7.13;;;5.20;;
20348;SDS011;10332;50.208;18.988;2024-02-14T10:36:00;8.55;;;5.47;;
20348;SDS011;10332;50.208;18.988;2024-02-14T10:38:32;7.55;;;4.82;;
20348;SDS011;10332;50.208;18.988;2024-02-14T10:41:01;6.07;;;4.80;;
20348;SDS011;10332;50.208;18.988;2024-02-14T10:43:32;6.53;;;4.53;;
20348;SDS011;10332;50.208;18.988;2024-02-14T10:46:00;7.78;;;4.82;;
20348;SDS011;10332;50.208;18.988;2024-02-14T10:48:34;8.05;;;4.97;;
20348;SDS011;10332;50.208;18.988;2024-02-14T10:51:06;7.80;;;4.57;;
20348;SDS011;10332;50.208;18.988;2024-02-14T10:53:37;6.47;;;4.30;;
20348;SDS011;10332;50.208;18.988;2024-02-14T10:56:13;5.18;;;3.63;;
20348;SDS011;10332;50.208;18.988;2024-02-14T10:58:45;6.07;;;4.18;;
20348;SDS011;10332;50.208;18.988;2024-02-14T11:01:14;5.95;;;4.15;;
20348;SDS011;10332;50.208;18.988;2024-02-14T11:03:45;6.32;;;3.72;;
20348;SDS011;10332;50.208;18.988;2024-02-14T11:06:16;6.05;;;4.07;;
20348;SDS011;10332;50.208;18.988;2024-02-14T11:08:57;5.57;;;4.47;;
20348;SDS011;10332;50.208;18.988;2024-02-14T11:11:30;4.55;;;2.97;;
20348;SDS011;10332;50.208;18.988;2024-02-14T11:13:59;3.75;;;2.60;;
20348;SDS011;10332;50.208;18.988;2024-02-14T11:16:27;4.07;;;2.45;;
20348;SDS011;10332;50.208;18.988;2024-02-14T11:21:40;5.85;;;3.42;;
20348;SDS011;10332;50.208;18.988;2024-02-14T11:24:15;3.33;;;2.55;;
20348;SDS011;10332;50.208;18.988;2024-02-14T11:26:47;3.60;;;2.60;;
20348;SDS011;10332;50.208;18.988;2024-02-14T11:29:16;3.08;;;2.47;;
20348;SDS011;10332;50.208;18.988;2024-02-14T11:31:56;3.17;;;2.38;;
20348;SDS011;10332;50.208;18.988;2024-02-14T11:34:28;3.28;;;2.38;;
20348;SDS011;10332;50.208;18.988;2024-02-14T11:37:04;3.58;;;2.90;;
20348;SDS011;10332;50.208;18.988;2024-02-14T11:39:32;3.08;;;2.53;;
20348;SDS011;10332;50.208;18.988;2024-02-14T11:42:00;3.25;;;2.40;;
20348;SDS011;10332;50.208;18.988;2024-02-14T11:44:28;4.20;;;3.38;;
20348;SDS011;10332;50.208;18.988;2024-02-14T11:46:56;4.18;;;3.40;;
20348;SDS011;10332;50.208;18.988;2024-02-14T11:49:25;3.95;;;2.80;;
20348;SDS011;10332;50.208;18.988;2024-02-14T11:51:52;4.85;;;3.35;;
20348;SDS011;10332;50.208;18.988;2024-02-14T11:54:26;4.68;;;3.55;;
20348;SDS011;10332;50.208;18.988;2024-02-14T11:56:53;6.07;;;3.83;;
20348;SDS011;10332;50.208;18.988;2024-02-14T11:59:21;4.50;;;3.42;;
20348;SDS011;10332;50.208;18.988;2024-02-14T12:01:49;5.05;;;3.22;;
20348;SDS011;10332;50.208;18.988;2024-02-14T12:04:18;4.47;;;3.10;;
20348;SDS011;10332;50.208;18.988;2024-02-14T12:06:45;4.20;;;3.42;;
20348;SDS011;10332;50.208;18.988;2024-02-14T12:09:13;5.75;;;3.88;;
20348;SDS011;10332;50.208;18.988;2024-02-14T12:11:41;4.07;;;3.50;;
20348;SDS011;10332;50.208;18.988;2024-02-14T12:14:10;5.15;;;4.15;;
20348;SDS011;10332;50.208;18.988;2024-02-14T12:16:38;4.45;;;3.63;;
20348;SDS011;10332;50.208;18.988;2024-02-14T12:19:09;6.53;;;3.92;;
20348;SDS011;10332;50.208;18.988;2024-02-14T12:21:43;6.28;;;3.90;;
20348;SDS011;10332;50.208;18.988;2024-02-14T12:24:11;5.50;;;3.90;;
20348;SDS011;10332;50.208;18.988;2024-02-14T12:26:42;6.63;;;4.20;;
20348;SDS011;10332;50.208;18.988;2024-02-14T12:29:13;5.25;;;4.05;;
20348;SDS011;10332;50.208;18.988;2024-02-14T12:31:40;4.78;;;3.88;;
20348;SDS011;10332;50.208;18.988;2024-02-14T12:34:11;7.13;;;3.53;;
20348;SDS011;10332;50.208;18.988;2024-02-14T12:36:40;5.28;;;3.75;;
20348;SDS011;10332;50.208;18.988;2024-02-14T12:39:08;5.45;;;4.03;;
20348;SDS011;10332;50.208;18.988;2024-02-14T12:41:39;5.47;;;3.85;;
20348;SDS011;10332;50.208;18.988;2024-02-14T12:44:07;6.85;;;3.88;;
20348;SDS011;10332;50.208;18.988;2024-02-14T12:46:35;5.13;;;3.40;;
20348;SDS011;10332;50.208;18.988;2024-02-14T12:49:05;4.53;;;2.95;;
20348;SDS011;10332;50.208;18.988;2024-02-14T12:51:33;6.35;;;2.88;;
20348;SDS011;10332;50.208;18.988;2024-02-14T12:54:03;4.60;;;3.50;;
20348;SDS011;10332;50.208;18.988;2024-02-14T12:56:36;3.97;;;2.95;;
20348;SDS011;10332;50.208;18.988;2024-02-14T12:59:03;4.82;;;3.20;;
20348;SDS011;10332;50.208;18.988;2024-02-14T13:01:30;4.50;;;3.15;;
20348;SDS011;10332;50.208;18.988;2024-02-14T13:03:58;5.75;;;3.72;;
20348;SDS011;10332;50.208;18.988;2024-02-14T13:06:27;5.00;;;3.15;;
20348;SDS011;10332;50.208;18.988;2024-02-14T13:08:54;3.67;;;2.92;;
20348;SDS011;10332;50.208;18.988;2024-02-14T13:11:22;3.75;;;3.17;;
20348;SDS011;10332;50.208;18.988;2024-02-14T13:13:50;4.68;;;3.28;;
20348;SDS011;10332;50.208;18.988;2024-02-14T13:16:17;3.72;;;3.00;;
20348;SDS011;10332;50.208;18.988;2024-02-14T13:18:45;5.72;;;3.08;;
20348;SDS011;10332;50.208;18.988;2024-02-14T13:21:12;4.75;;;3.00;;
20348;SDS011;10332;50.208;18.988;2024-02-14T13:23:40;5.18;;;3.28;;
20348;SDS011;10332;50.208;18.988;2024-02-14T13:26:07;4.82;;;3.13;;
20348;SDS011;10332;50.208;18.988;2024-02-14T13:28:35;3.90;;;3.00;;
20348;SDS011;10332;50.208;18.988;2024-02-14T13:31:03;4.70;;;3.65;;
20348;SDS011;10332;50.208;18.988;2024-02-14T13:33:30;4.75;;;3.45;;
20348;SDS011;10332;50.208;18.988;2024-02-14T13:35:58;4.70;;;3.58;;
20348;SDS011;10332;50.208;18.988;2024-02-14T13:38:25;6.00;;;3.95;;
20348;SDS011;10332;50.208;18.988;2024-02-14T13:40:52;5.50;;;3.80;;
20348;SDS011;10332;50.208;18.988;2024-02-14T13:43:20;5.00;;;3.53;;
20348;SDS011;10332;50.208;18.988;2024-02-14T13:45:47;4.70;;;3.35;;
20348;SDS011;10332;50.208;18.988;2024-02-14T13:48:17;4.75;;;3.42;;
20348;SDS011;10332;50.208;18.988;2024-02-14T13:50:44;5.25;;;3.60;;
20348;SDS011;10332;50.208;18.988;2024-02-14T13:53:12;5.28;;;3.58;;
20348;SDS011;10332;50.208;18.988;2024-02-14T13:55:39;5.85;;;3.75;;
20348;SDS011;10332;50.208;18.988;2024-02-14T13:58:07;6.18;;;4.43;;
20348;SDS011;10332;50.208;18.988;2024-02-14T14:00:41;6.65;;;4.53;;
20348;SDS011;10332;50.208;18.988;2024-02-14T14:03:09;9.13;;;4.47;;
20348;SDS011;10332;50.208;18.988;2024-02-14T14:05:38;6.57;;;4.13;;
20348;SDS011;10332;50.208;18.988;2024-02-14T14:08:06;6.78;;;3.50;;
20348;SDS011;10332;50.208;18.988;2024-02-14T14:10:33;5.95;;;3.58;;
20348;SDS011;10332;50.208;18.988;2024-02-14T14:13:01;7.75;;;4.50;;
20348;SDS011;10332;50.208;18.988;2024-02-14T14:15:28;6.40;;;3.75;;
20348;SDS011;10332;50.208;18.988;2024-02-14T14:17:56;4.95;;;3.80;;
20348;SDS011;10332;50.208;18.988;2024-02-14T14:20:24;4.97;;;3.50;;
20348;SDS011;10332;50.208;18.988;2024-02-14T14:22:52;8.90;;;4.05;;
20348;SDS011;10332;50.208;18.988;2024-02-14T14:25:19;6.47;;;3.83;;